sensor_id;sensor_type;location;lat;lon;timestamp;pressure;altitude;pressure_sealevel;temperature;humidity
13312;BME280;34033;48.672;9.376;2022-11-04T00:00:22;97605.22;;;13.12;87.37
13312;BME280;34033;48.672;9.376;2022-11-04T00:02:48;97597.84;;;13.18;86.79
13312;BME280;34033;48.672;9.376;2022-11-04T00:05:13;97589.75;;;13.23;86.72
13312;BME280;34033;48.672;9.376;2022-11-04T00:07:39;97601.22;;;13.32;86.49
13312;BME280;34033;48.672;9.376;2022-11-04T00:10:23;97595.78;;;13.45;85.55
13312;BME280;34033;48.672;9.376;2022-11-04T00:13:08;97586.91;;;13.47;85.13
13312;BME280;34033;48.672;9.376;2022-11-04T00:15:36;97584.09;;;13.47;84.47
13312;BME280;34033;48.672;9.376;2022-11-04T00:18:20;97577.38;;;13.41;84.08
13312;BME280;34033;48.672;9.376;2022-11-04T00:20:45;97585.47;;;13.39;85.45
13312;BME280;34033;48.672;9.376;2022-11-04T00:23:29;97589.22;;;13.52;85.17
13312;BME280;34033;48.672;9.376;2022-11-04T00:26:13;97584.63;;;13.61;85.27
13312;BME280;34033;48.672;9.376;2022-11-04T00:28:57;97578.94;;;13.65;83.54
13312;BME280;34033;48.672;9.376;2022-11-04T00:31:22;97582.97;;;13.64;83.23
13312;BME280;34033;48.672;9.376;2022-11-04T00:34:06;97586.19;;;13.62;83.76
13312;BME280;34033;48.672;9.376;2022-11-04T00:36:32;97580.53;;;13.66;83.84
13312;BME280;34033;48.672;9.376;2022-11-04T00:38:57;97590.03;;;13.72;83.44
13312;BME280;34033;48.672;9.376;2022-11-04T00:41:22;97585.69;;;13.67;83.25
13312;BME280;34033;48.672;9.376;2022-11-04T00:46:22;97592.34;;;13.77;83.84
13312;BME280;34033;48.672;9.376;2022-11-04T00:48:48;97598.28;;;13.79;82.76
13312;BME280;34033;48.672;9.376;2022-11-04T00:51:14;97598.81;;;13.74;82.23
13312;BME280;34033;48.672;9.376;2022-11-04T00:53:39;97606.66;;;13.63;82.10
13312;BME280;34033;48.672;9.376;2022-11-04T00:56:05;97604.84;;;13.53;82.38
13312;BME280;34033;48.672;9.376;2022-11-04T00:58:30;97603.41;;;13.45;82.97
13312;BME280;34033;48.672;9.376;2022-11-04T01:00:55;97606.63;;;13.43;83.26
13312;BME280;34033;48.672;9.376;2022-11-04T01:03:21;97595.91;;;13.38;83.35
13312;BME280;34033;48.672;9.376;2022-11-04T01:05:46;97594.72;;;13.35;82.56
13312;BME280;34033;48.672;9.376;2022-11-04T01:08:11;97595.09;;;13.38;82.23
13312;BME280;34033;48.672;9.376;2022-11-04T01:10:37;97599.84;;;13.41;81.83
13312;BME280;34033;48.672;9.376;2022-11-04T01:13:09;97603.75;;;13.47;82.12
13312;BME280;34033;48.672;9.376;2022-11-04T01:15:35;97605.25;;;13.51;81.00
13312;BME280;34033;48.672;9.376;2022-11-04T01:18:01;97614.47;;;13.52;81.69
13312;BME280;34033;48.672;9.376;2022-11-04T01:20:26;97611.66;;;13.52;81.04
13312;BME280;34033;48.672;9.376;2022-11-04T01:22:51;97628.53;;;13.52;82.14
13312;BME280;34033;48.672;9.376;2022-11-04T01:25:17;97635.66;;;13.56;81.97
13312;BME280;34033;48.672;9.376;2022-11-04T01:27:42;97635.09;;;13.45;82.10
13312;BME280;34033;48.672;9.376;2022-11-04T01:30:08;97632.31;;;13.42;82.82
13312;BME280;34033;48.672;9.376;2022-11-04T01:32:34;97622.69;;;13.43;82.51
13312;BME280;34033;48.672;9.376;2022-11-04T01:34:59;97625.63;;;13.35;82.48
13312;BME280;34033;48.672;9.376;2022-11-04T01:37:25;97629.59;;;13.38;82.71
13312;BME280;34033;48.672;9.376;2022-11-04T01:39:50;97627.91;;;13.41;82.46
13312;BME280;34033;48.672;9.376;2022-11-04T01:42:20;97621.47;;;13.44;83.96
13312;BME280;34033;48.672;9.376;2022-11-04T01:44:48;97624.59;;;13.26;82.23
13312;BME280;34033;48.672;9.376;2022-11-04T01:47:18;97621.41;;;13.24;82.83
13312;BME280;34033;48.672;9.376;2022-11-04T01:49:46;97623.78;;;13.25;82.40
13312;BME280;34033;48.672;9.376;2022-11-04T01:52:17;97617.03;;;13.23;81.58
13312;BME280;34033;48.672;9.376;2022-11-04T01:54:45;97622.56;;;13.26;82.10
13312;BME280;34033;48.672;9.376;2022-11-04T01:57:17;97620.91;;;13.29;81.69
13312;BME280;34033;48.672;9.376;2022-11-04T01:59:43;97629.03;;;13.23;81.63
13312;BME280;34033;48.672;9.376;2022-11-04T02:02:08;97614.94;;;13.27;82.38
13312;BME280;34033;48.672;9.376;2022-11-04T02:04:35;97618.56;;;13.27;81.16
13312;BME280;34033;48.672;9.376;2022-11-04T02:07:03;97609.75;;;13.25;81.68
13312;BME280;34033;48.672;9.376;2022-11-04T02:09:32;97599.81;;;13.21;80.88
13312;BME280;34033;48.672;9.376;2022-11-04T02:11:58;97603.06;;;13.19;80.41
13312;BME280;34033;48.672;9.376;2022-11-04T02:14:43;97593.72;;;13.26;80.67
13312;BME280;34033;48.672;9.376;2022-11-04T02:17:19;97600.63;;;13.21;79.56
13312;BME280;34033;48.672;9.376;2022-11-04T02:30:49;97611.31;;;13.03;80.89
13312;BME280;34033;48.672;9.376;2022-11-04T02:33:24;97605.47;;;12.94;80.10
13312;BME280;34033;48.672;9.376;2022-11-04T02:36:08;97613.50;;;12.92;80.77
13312;BME280;34033;48.672;9.376;2022-11-04T02:39:04;97618.81;;;12.86;81.08
13312;BME280;34033;48.672;9.376;2022-11-04T02:41:40;97612.28;;;12.93;81.07
13312;BME280;34033;48.672;9.376;2022-11-04T02:44:30;97617.53;;;12.91;80.96
13312;BME280;34033;48.672;9.376;2022-11-04T02:47:03;97626.97;;;12.77;80.92
13312;BME280;34033;48.672;9.376;2022-11-04T02:52:07;97619.41;;;12.47;82.55
13312;BME280;34033;48.672;9.376;2022-11-04T02:57:26;97617.94;;;12.66;82.46
13312;BME280;34033;48.672;9.376;2022-11-04T03:03:12;97611.59;;;12.85;80.68
13312;BME280;34033;48.672;9.376;2022-11-04T03:05:15;97614.00;;;12.87;80.02
13312;BME280;34033;48.672;9.376;2022-11-04T03:07:43;97609.59;;;12.86;80.41
13312;BME280;34033;48.672;9.376;2022-11-04T03:10:17;97608.31;;;12.90;79.30
13312;BME280;34033;48.672;9.376;2022-11-04T03:13:12;97610.72;;;12.92;78.69
13312;BME280;34033;48.672;9.376;2022-11-04T03:15:36;97616.31;;;12.92;79.20
13312;BME280;34033;48.672;9.376;2022-11-04T03:20:41;97624.53;;;12.79;79.66
13312;BME280;34033;48.672;9.376;2022-11-04T03:23:09;97632.09;;;12.82;80.12
13312;BME280;34033;48.672;9.376;2022-11-04T03:25:40;97637.63;;;12.89;79.72
13312;BME280;34033;48.672;9.376;2022-11-04T03:28:24;97647.41;;;13.01;80.30
13312;BME280;34033;48.672;9.376;2022-11-04T03:30:55;97635.72;;;13.06;79.00
13312;BME280;34033;48.672;9.376;2022-11-04T03:36:06;97645.63;;;13.14;79.17
13312;BME280;34033;48.672;9.376;2022-11-04T03:38:34;97641.53;;;13.19;79.85
13312;BME280;34033;48.672;9.376;2022-11-04T03:41:01;97644.88;;;13.10;78.16
13312;BME280;34033;48.672;9.376;2022-11-04T03:43:28;97647.31;;;13.08;78.01
13312;BME280;34033;48.672;9.376;2022-11-04T03:45:54;97654.69;;;12.99;80.41
13312;BME280;34033;48.672;9.376;2022-11-04T03:48:21;97659.91;;;12.96;79.38
13312;BME280;34033;48.672;9.376;2022-11-04T03:50:47;97672.38;;;12.95;80.21
13312;BME280;34033;48.672;9.376;2022-11-04T03:53:16;97675.59;;;12.94;79.33
13312;BME280;34033;48.672;9.376;2022-11-04T03:58:50;97670.00;;;12.94;78.52
13312;BME280;34033;48.672;9.376;2022-11-04T04:06:58;97670.81;;;12.91;79.01
13312;BME280;34033;48.672;9.376;2022-11-04T04:09:39;97672.78;;;12.94;78.13
13312;BME280;34033;48.672;9.376;2022-11-04T04:12:16;97671.81;;;13.04;80.56
13312;BME280;34033;48.672;9.376;2022-11-04T04:14:50;97671.00;;;13.30;81.31
13312;BME280;34033;48.672;9.376;2022-11-04T04:19:56;97656.78;;;13.18;77.62
13312;BME280;34033;48.672;9.376;2022-11-04T04:22:26;97656.84;;;13.14;76.46
13312;BME280;34033;48.672;9.376;2022-11-04T04:24:55;97657.69;;;13.11;76.80
13312;BME280;34033;48.672;9.376;2022-11-04T04:27:41;97676.97;;;13.09;76.62
13312;BME280;34033;48.672;9.376;2022-11-04T04:30:11;97681.69;;;13.16;79.25
13312;BME280;34033;48.672;9.376;2022-11-04T04:32:49;97681.31;;;13.14;76.95
13312;BME280;34033;48.672;9.376;2022-11-04T04:35:16;97688.19;;;13.09;77.19
13312;BME280;34033;48.672;9.376;2022-11-04T04:38:05;97688.53;;;12.88;77.05
13312;BME280;34033;48.672;9.376;2022-11-04T04:40:59;97683.91;;;12.74;77.25
13312;BME280;34033;48.672;9.376;2022-11-04T04:43:45;97687.66;;;12.64;77.95
13312;BME280;34033;48.672;9.376;2022-11-04T04:46:30;97688.38;;;12.68;78.25
13312;BME280;34033;48.672;9.376;2022-11-04T04:49:06;97672.84;;;12.64;78.42
13312;BME280;34033;48.672;9.376;2022-11-04T04:51:32;97671.69;;;12.61;77.83
13312;BME280;34033;48.672;9.376;2022-11-04T04:53:58;97671.69;;;12.61;78.37
13312;BME280;34033;48.672;9.376;2022-11-04T04:56:24;97660.78;;;12.93;81.38
13312;BME280;34033;48.672;9.376;2022-11-04T04:58:49;97640.66;;;12.99;78.67
13312;BME280;34033;48.672;9.376;2022-11-04T05:01:14;97627.91;;;12.94;77.86
13312;BME280;34033;48.672;9.376;2022-11-04T05:03:40;97621.56;;;12.90;77.56
13312;BME280;34033;48.672;9.376;2022-11-04T05:06:05;97614.47;;;12.82;77.34
13312;BME280;34033;48.672;9.376;2022-11-04T05:08:30;97609.34;;;12.77;77.13
13312;BME280;34033;48.672;9.376;2022-11-04T05:10:57;97613.84;;;12.71;77.18
13312;BME280;34033;48.672;9.376;2022-11-04T05:13:23;97616.72;;;12.67;77.61
13312;BME280;34033;48.672;9.376;2022-11-04T05:15:52;97616.72;;;12.67;77.39
13312;BME280;34033;48.672;9.376;2022-11-04T05:18:18;97615.19;;;12.63;77.41
13312;BME280;34033;48.672;9.376;2022-11-04T05:20:43;97612.38;;;12.63;77.39
13312;BME280;34033;48.672;9.376;2022-11-04T05:23:09;97615.19;;;12.63;77.60
13312;BME280;34033;48.672;9.376;2022-11-04T05:25:37;97627.19;;;12.63;76.97
13312;BME280;34033;48.672;9.376;2022-11-04T05:28:04;97630.78;;;12.64;76.94
13312;BME280;34033;48.672;9.376;2022-11-04T05:30:29;97626.03;;;12.61;77.19
13312;BME280;34033;48.672;9.376;2022-11-04T05:32:55;97630.53;;;12.54;77.61
13312;BME280;34033;48.672;9.376;2022-11-04T05:35:20;97627.72;;;12.54;77.40
13312;BME280;34033;48.672;9.376;2022-11-04T05:37:45;97627.97;;;12.64;78.40
13312;BME280;34033;48.672;9.376;2022-11-04T05:40:11;97632.47;;;12.58;77.13
13312;BME280;34033;48.672;9.376;2022-11-04T05:42:36;97638.22;;;12.50;77.13
13312;BME280;34033;48.672;9.376;2022-11-04T05:45:02;97632.63;;;12.47;77.20
13312;BME280;34033;48.672;9.376;2022-11-04T05:47:28;97624.66;;;12.45;77.46
13312;BME280;34033;48.672;9.376;2022-11-04T05:49:53;97631.41;;;12.48;77.71
13312;BME280;34033;48.672;9.376;2022-11-04T05:52:19;97624.28;;;12.43;77.18
13312;BME280;34033;48.672;9.376;2022-11-04T05:54:44;97621.06;;;12.45;77.56
13312;BME280;34033;48.672;9.376;2022-11-04T05:57:09;97617.81;;;12.46;77.41
13312;BME280;34033;48.672;9.376;2022-11-04T05:59:35;97612.91;;;12.54;78.33
13312;BME280;34033;48.672;9.376;2022-11-04T06:02:01;97632.53;;;12.54;78.15
13312;BME280;34033;48.672;9.376;2022-11-04T06:04:27;97633.00;;;12.49;77.66
13312;BME280;34033;48.672;9.376;2022-11-04T06:06:52;97640.78;;;12.38;78.29
13312;BME280;34033;48.672;9.376;2022-11-04T06:09:18;97634.00;;;12.35;77.85
13312;BME280;34033;48.672;9.376;2022-11-04T06:11:43;97643.66;;;12.34;77.76
13312;BME280;34033;48.672;9.376;2022-11-04T06:14:09;97638.06;;;12.31;78.26
13312;BME280;34033;48.672;9.376;2022-11-04T06:16:35;97641.31;;;12.29;78.14
13312;BME280;34033;48.672;9.376;2022-11-04T06:19:00;97658.53;;;12.28;78.30
13312;BME280;34033;48.672;9.376;2022-11-04T06:21:28;97680.53;;;12.29;77.75
13312;BME280;34033;48.672;9.376;2022-11-04T06:23:55;97680.63;;;12.22;77.40
13312;BME280;34033;48.672;9.376;2022-11-04T06:26:24;97679.44;;;12.20;77.71
13312;BME280;34033;48.672;9.376;2022-11-04T06:28:50;97670.16;;;12.26;78.71
13312;BME280;34033;48.672;9.376;2022-11-04T06:31:17;97676.84;;;12.36;78.52
13312;BME280;34033;48.672;9.376;2022-11-04T06:33:43;97671.56;;;12.41;78.41
13312;BME280;34033;48.672;9.376;2022-11-04T06:36:11;97673.63;;;12.37;77.97
13312;BME280;34033;48.672;9.376;2022-11-04T06:38:37;97679.59;;;12.39;78.30
13312;BME280;34033;48.672;9.376;2022-11-04T06:41:04;97685.25;;;12.36;77.86
13312;BME280;34033;48.672;9.376;2022-11-04T06:43:29;97683.72;;;12.31;77.62
13312;BME280;34033;48.672;9.376;2022-11-04T06:45:56;97688.56;;;12.27;77.79
13312;BME280;34033;48.672;9.376;2022-11-04T06:48:22;97685.38;;;12.25;77.26
13312;BME280;34033;48.672;9.376;2022-11-04T06:50:47;97679.13;;;12.14;77.81
13312;BME280;34033;48.672;9.376;2022-11-04T06:53:13;97680.31;;;12.13;77.53
13312;BME280;34033;48.672;9.376;2022-11-04T06:55:38;97680.31;;;12.13;77.71
13312;BME280;34033;48.672;9.376;2022-11-04T06:58:03;97679.41;;;12.23;77.40
13312;BME280;34033;48.672;9.376;2022-11-04T07:00:28;97674.94;;;12.29;77.45
13312;BME280;34033;48.672;9.376;2022-11-04T07:02:54;97662.09;;;12.32;77.40
13312;BME280;34033;48.672;9.376;2022-11-04T07:05:19;97663.66;;;12.33;77.03
13312;BME280;34033;48.672;9.376;2022-11-04T07:07:45;97656.75;;;12.41;77.02
13312;BME280;34033;48.672;9.376;2022-11-04T07:10:10;97652.78;;;12.38;77.01
13312;BME280;34033;48.672;9.376;2022-11-04T07:12:35;97643.97;;;12.40;77.40
13312;BME280;34033;48.672;9.376;2022-11-04T07:15:01;97642.09;;;12.30;77.09
13312;BME280;34033;48.672;9.376;2022-11-04T07:17:27;97646.53;;;12.27;77.40
13312;BME280;34033;48.672;9.376;2022-11-04T07:19:52;97644.53;;;12.28;77.84
13312;BME280;34033;48.672;9.376;2022-11-04T07:22:17;97627.00;;;12.20;77.93
13312;BME280;34033;48.672;9.376;2022-11-04T07:24:42;97624.28;;;12.13;77.85
13312;BME280;34033;48.672;9.376;2022-11-04T07:27:08;97631.94;;;12.13;78.59
13312;BME280;34033;48.672;9.376;2022-11-04T07:29:34;97643.09;;;12.16;78.82
13312;BME280;34033;48.672;9.376;2022-11-04T07:31:59;97643.81;;;12.20;78.29
13312;BME280;34033;48.672;9.376;2022-11-04T07:34:24;97650.31;;;12.13;78.52
13312;BME280;34033;48.672;9.376;2022-11-04T07:36:50;97651.53;;;12.13;79.03
13312;BME280;34033;48.672;9.376;2022-11-04T07:39:15;97652.22;;;12.20;79.57
13312;BME280;34033;48.672;9.376;2022-11-04T07:41:40;97653.03;;;12.21;79.09
13312;BME280;34033;48.672;9.376;2022-11-04T07:44:06;97649.41;;;12.24;79.28
13312;BME280;34033;48.672;9.376;2022-11-04T07:46:31;97657.34;;;12.25;79.04
13312;BME280;34033;48.672;9.376;2022-11-04T07:48:58;97651.66;;;12.32;79.17
13312;BME280;34033;48.672;9.376;2022-11-04T07:51:25;97644.38;;;12.38;78.92
13312;BME280;34033;48.672;9.376;2022-11-04T07:53:50;97639.03;;;12.47;79.15
13312;BME280;34033;48.672;9.376;2022-11-04T07:56:16;97645.75;;;12.53;78.42
13312;BME280;34033;48.672;9.376;2022-11-04T07:58:43;97639.75;;;12.55;77.94
13312;BME280;34033;48.672;9.376;2022-11-04T08:01:11;97632.47;;;12.58;78.18
13312;BME280;34033;48.672;9.376;2022-11-04T08:03:37;97629.19;;;12.63;78.00
13312;BME280;34033;48.672;9.376;2022-11-04T08:06:04;97627.09;;;12.70;77.96
13312;BME280;34033;48.672;9.376;2022-11-04T08:08:30;97630.19;;;12.76;77.59
13312;BME280;34033;48.672;9.376;2022-11-04T08:11:07;97634.50;;;12.84;77.53
13312;BME280;34033;48.672;9.376;2022-11-04T08:13:34;97642.94;;;12.80;77.58
13312;BME280;34033;48.672;9.376;2022-11-04T08:16:11;97642.53;;;12.82;77.32
13312;BME280;34033;48.672;9.376;2022-11-04T08:18:38;97642.84;;;12.87;77.04
13312;BME280;34033;48.672;9.376;2022-11-04T08:21:04;97652.44;;;12.90;77.42
13312;BME280;34033;48.672;9.376;2022-11-04T08:23:31;97652.75;;;12.95;77.38
13312;BME280;34033;48.672;9.376;2022-11-04T08:25:57;97651.81;;;13.02;77.83
13312;BME280;34033;48.672;9.376;2022-11-04T08:28:23;97661.75;;;13.07;77.20
13312;BME280;34033;48.672;9.376;2022-11-04T08:33:17;97657.22;;;13.16;75.89
13312;BME280;34033;48.672;9.376;2022-11-04T08:35:42;97652.72;;;13.22;76.31
13312;BME280;34033;48.672;9.376;2022-11-04T08:38:07;97653.06;;;13.24;76.05
13312;BME280;34033;48.672;9.376;2022-11-04T08:40:35;97651.84;;;13.25;75.48
13312;BME280;34033;48.672;9.376;2022-11-04T08:43:00;97649.06;;;13.25;75.40
13312;BME280;34033;48.672;9.376;2022-11-04T08:45:26;97641.00;;;13.27;75.14
13312;BME280;34033;48.672;9.376;2022-11-04T08:47:51;97634.09;;;13.32;75.29
13312;BME280;34033;48.672;9.376;2022-11-04T08:50:16;97635.19;;;13.38;74.76
13312;BME280;34033;48.672;9.376;2022-11-04T08:52:42;97636.34;;;13.41;75.00
13312;BME280;34033;48.672;9.376;2022-11-04T08:55:08;97648.38;;;13.41;74.35
13312;BME280;34033;48.672;9.376;2022-11-04T08:57:34;97641.97;;;13.41;74.25
13312;BME280;34033;48.672;9.376;2022-11-04T08:59:59;97651.63;;;13.40;74.19
13312;BME280;34033;48.672;9.376;2022-11-04T09:02:24;97648.25;;;13.48;75.09
13312;BME280;34033;48.672;9.376;2022-11-04T09:04:50;97652.88;;;13.58;74.27
13312;BME280;34033;48.672;9.376;2022-11-04T09:07:15;97654.75;;;13.65;73.42
13312;BME280;34033;48.672;9.376;2022-11-04T09:09:40;97660.69;;;13.70;72.63
13312;BME280;34033;48.672;9.376;2022-11-04T09:12:09;97662.19;;;13.75;71.70
13312;BME280;34033;48.672;9.376;2022-11-04T09:14:35;97671.78;;;13.77;71.76
13312;BME280;34033;48.672;9.376;2022-11-04T09:17:01;97672.06;;;13.83;71.52
13312;BME280;34033;48.672;9.376;2022-11-04T09:19:26;97674.38;;;13.88;70.82
13312;BME280;34033;48.672;9.376;2022-11-04T09:21:51;97675.53;;;13.91;70.40
13312;BME280;34033;48.672;9.376;2022-11-04T09:24:17;97678.28;;;13.94;70.80
13312;BME280;34033;48.672;9.376;2022-11-04T09:26:43;97671.78;;;13.97;70.41
13312;BME280;34033;48.672;9.376;2022-11-04T09:29:09;97678.13;;;14.01;69.98
13312;BME280;34033;48.672;9.376;2022-11-04T09:31:35;97679.72;;;14.02;69.69
13312;BME280;34033;48.672;9.376;2022-11-04T09:34:00;97677.63;;;14.06;70.15
13312;BME280;34033;48.672;9.376;2022-11-04T09:36:26;97673.44;;;14.14;70.12
13312;BME280;34033;48.672;9.376;2022-11-04T09:38:53;97671.78;;;14.17;69.70
13312;BME280;34033;48.672;9.376;2022-11-04T09:41:49;97660.47;;;14.20;69.05
13312;BME280;34033;48.672;9.376;2022-11-04T09:47:13;97666.66;;;14.32;68.59
13312;BME280;34033;48.672;9.376;2022-11-04T09:49:41;97648.50;;;14.36;68.89
13312;BME280;34033;48.672;9.376;2022-11-04T09:52:19;97650.41;;;14.43;68.92
13312;BME280;34033;48.672;9.376;2022-11-04T09:55:02;97652.59;;;14.51;68.31
13312;BME280;34033;48.672;9.376;2022-11-04T09:57:31;97644.81;;;14.59;67.42
13312;BME280;34033;48.672;9.376;2022-11-04T09:59:58;97658.72;;;14.66;67.56
13312;BME280;34033;48.672;9.376;2022-11-04T10:02:35;97652.91;;;14.73;67.21
13312;BME280;34033;48.672;9.376;2022-11-04T10:15:38;97645.13;;;14.97;65.78
13312;BME280;34033;48.672;9.376;2022-11-04T10:18:26;97640.66;;;14.99;66.07
13312;BME280;34033;48.672;9.376;2022-11-04T10:21:28;97638.25;;;14.98;64.80
13312;BME280;34033;48.672;9.376;2022-11-04T10:26:51;97630.88;;;15.04;64.69
13312;BME280;34033;48.672;9.376;2022-11-04T10:29:36;97626.31;;;15.10;64.87
13312;BME280;34033;48.672;9.376;2022-11-04T10:32:05;97624.97;;;15.15;64.05
13312;BME280;34033;48.672;9.376;2022-11-04T10:34:40;97623.22;;;15.21;63.62
13312;BME280;34033;48.672;9.376;2022-11-04T10:37:10;97616.34;;;15.22;63.38
13312;BME280;34033;48.672;9.376;2022-11-04T10:39:42;97610.63;;;15.25;62.91
13312;BME280;34033;48.672;9.376;2022-11-04T10:42:11;97611.97;;;15.21;62.01
13312;BME280;34033;48.672;9.376;2022-11-04T10:44:37;97612.50;;;15.16;60.98
13312;BME280;34033;48.672;9.376;2022-11-04T10:52:11;97614.16;;;15.13;58.82
13312;BME280;34033;48.672;9.376;2022-11-04T10:54:43;97616.34;;;15.22;58.77
13312;BME280;34033;48.672;9.376;2022-11-04T10:57:09;97609.84;;;15.25;58.18
13312;BME280;34033;48.672;9.376;2022-11-04T10:59:58;97604.47;;;15.30;58.21
13312;BME280;34033;48.672;9.376;2022-11-04T11:07:43;97590.72;;;15.49;57.85
13312;BME280;34033;48.672;9.376;2022-11-04T11:10:30;97589.53;;;15.62;58.67
13312;BME280;34033;48.672;9.376;2022-11-04T11:13:01;97591.03;;;15.67;57.17
13312;BME280;34033;48.672;9.376;2022-11-04T11:15:35;97589.59;;;15.75;57.14
13312;BME280;34033;48.672;9.376;2022-11-04T11:18:11;97590.94;;;15.70;55.33
13312;BME280;34033;48.672;9.376;2022-11-04T11:20:37;97589.34;;;15.69;56.02
13312;BME280;34033;48.672;9.376;2022-11-04T11:23:05;97586.56;;;16.49;70.01
13312;BME280;34033;48.672;9.376;2022-11-04T11:25:50;97584.91;;;16.89;62.07
13312;BME280;34033;48.672;9.376;2022-11-04T11:28:23;97581.41;;;16.98;56.27
13312;BME280;34033;48.672;9.376;2022-11-04T11:30:56;97571.94;;;16.79;54.71
13312;BME280;34033;48.672;9.376;2022-11-04T11:33:28;97564.06;;;16.61;54.66
13312;BME280;34033;48.672;9.376;2022-11-04T11:35:57;97563.69;;;16.47;55.28
13312;BME280;34033;48.672;9.376;2022-11-04T11:38:28;97570.53;;;16.33;58.13
13312;BME280;34033;48.672;9.376;2022-11-04T11:41:10;97564.88;;;16.08;55.63
13312;BME280;34033;48.672;9.376;2022-11-04T11:43:39;97564.38;;;15.84;52.59
13312;BME280;34033;48.672;9.376;2022-11-04T11:46:07;97562.16;;;15.92;55.06
13312;BME280;34033;48.672;9.376;2022-11-04T11:48:39;97572.28;;;15.89;55.00
13312;BME280;34033;48.672;9.376;2022-11-04T11:51:05;97559.56;;;16.10;57.45
13312;BME280;34033;48.672;9.376;2022-11-04T11:53:31;97561.38;;;16.04;53.71
13312;BME280;34033;48.672;9.376;2022-11-04T11:56:35;97556.31;;;15.99;54.26
13312;BME280;34033;48.672;9.376;2022-11-04T11:59:53;97568.22;;;15.90;53.65
13312;BME280;34033;48.672;9.376;2022-11-04T12:02:54;97556.91;;;15.77;53.01
13312;BME280;34033;48.672;9.376;2022-11-04T12:05:39;97562.03;;;15.54;52.83
13312;BME280;34033;48.672;9.376;2022-11-04T12:10:54;97555.94;;;15.39;54.59
13312;BME280;34033;48.672;9.376;2022-11-04T12:13:26;97565.59;;;15.25;54.19
13312;BME280;34033;48.672;9.376;2022-11-04T12:16:12;97558.97;;;15.32;55.03
13312;BME280;34033;48.672;9.376;2022-11-04T12:21:48;97571.66;;;15.08;54.11
13312;BME280;34033;48.672;9.376;2022-11-04T12:24:34;97574.66;;;15.00;54.43
13312;BME280;34033;48.672;9.376;2022-11-04T12:30:05;97563.38;;;15.17;54.86
13312;BME280;34033;48.672;9.376;2022-11-04T12:33:06;97572.59;;;15.33;54.90
13312;BME280;34033;48.672;9.376;2022-11-04T12:38:35;97565.97;;;15.40;54.59
13312;BME280;34033;48.672;9.376;2022-11-04T12:41:30;97571.09;;;15.29;54.10
13312;BME280;34033;48.672;9.376;2022-11-04T12:56:41;97580.88;;;15.24;54.90
13312;BME280;34033;48.672;9.376;2022-11-04T13:02:00;97585.97;;;15.29;55.23
13312;BME280;34033;48.672;9.376;2022-11-04T13:04:33;97586.09;;;15.26;54.54
13312;BME280;34033;48.672;9.376;2022-11-04T13:07:02;97591.88;;;15.19;54.83
13312;BME280;34033;48.672;9.376;2022-11-04T13:09:54;97592.53;;;15.10;54.83
13312;BME280;34033;48.672;9.376;2022-11-04T13:12:24;97591.47;;;15.20;56.00
13312;BME280;34033;48.672;9.376;2022-11-04T13:14:53;97595.75;;;15.25;55.60
13312;BME280;34033;48.672;9.376;2022-11-04T13:17:27;97597.13;;;15.33;56.36
13312;BME280;34033;48.672;9.376;2022-11-04T13:20:12;97590.66;;;15.20;54.21
13312;BME280;34033;48.672;9.376;2022-11-04T13:22:42;97592.03;;;15.28;54.99
13312;BME280;34033;48.672;9.376;2022-11-04T13:25:19;97596.56;;;15.09;53.53
13312;BME280;34033;48.672;9.376;2022-11-04T13:27:48;97594.53;;;15.10;54.43
13312;BME280;34033;48.672;9.376;2022-11-04T13:30:19;97599.44;;;15.22;55.13
13312;BME280;34033;48.672;9.376;2022-11-04T13:35:48;97588.66;;;15.65;61.56
13312;BME280;34033;48.672;9.376;2022-11-04T13:38:33;97587.59;;;15.88;56.25
13312;BME280;34033;48.672;9.376;2022-11-04T13:43:52;97590.78;;;16.57;57.52
13312;BME280;34033;48.672;9.376;2022-11-04T13:46:21;97588.44;;;16.81;55.64
13312;BME280;34033;48.672;9.376;2022-11-04T13:51:43;97584.84;;;17.27;54.55
13312;BME280;34033;48.672;9.376;2022-11-04T13:54:31;97585.09;;;17.55;52.55
13312;BME280;34033;48.672;9.376;2022-11-04T13:57:16;97581.63;;;17.85;51.86
13312;BME280;34033;48.672;9.376;2022-11-04T14:02:51;97592.31;;;18.33;50.04
13312;BME280;34033;48.672;9.376;2022-11-04T14:16:03;97599.00;;;17.62;50.81
13312;BME280;34033;48.672;9.376;2022-11-04T14:18:40;97606.75;;;17.36;50.00
13312;BME280;34033;48.672;9.376;2022-11-04T14:21:22;97610.25;;;17.27;51.58
13312;BME280;34033;48.672;9.376;2022-11-04T14:26:17;97596.97;;;17.15;52.03
13312;BME280;34033;48.672;9.376;2022-11-04T14:28:49;97599.47;;;17.13;52.12
13312;BME280;34033;48.672;9.376;2022-11-04T14:31:38;97605.53;;;17.24;51.33
13312;BME280;34033;48.672;9.376;2022-11-04T14:34:05;97613.66;;;17.22;51.98
13312;BME280;34033;48.672;9.376;2022-11-04T14:36:37;97626.56;;;17.10;51.32
13312;BME280;34033;48.672;9.376;2022-11-04T14:41:39;97627.47;;;16.95;52.32
13312;BME280;34033;48.672;9.376;2022-11-04T14:44:22;97619.81;;;16.83;52.78
13312;BME280;34033;48.672;9.376;2022-11-04T14:46:52;97623.41;;;16.71;53.20
13312;BME280;34033;48.672;9.376;2022-11-04T14:49:50;97621.16;;;16.65;53.71
13312;BME280;34033;48.672;9.376;2022-11-04T14:52:26;97631.94;;;16.42;52.79
13312;BME280;34033;48.672;9.376;2022-11-04T14:54:56;97637.63;;;15.84;55.55
13312;BME280;34033;48.672;9.376;2022-11-04T14:57:22;97646.31;;;15.61;56.95
13312;BME280;34033;48.672;9.376;2022-11-04T14:59:48;97649.63;;;15.27;65.62
13312;BME280;34033;48.672;9.376;2022-11-04T15:02:22;97656.69;;;15.80;71.29
13312;BME280;34033;48.672;9.376;2022-11-04T15:04:55;97646.94;;;16.26;64.88
13312;BME280;34033;48.672;9.376;2022-11-04T15:07:24;97653.94;;;16.34;59.53
13312;BME280;34033;48.672;9.376;2022-11-04T15:09:50;97649.75;;;15.97;59.70
13312;BME280;34033;48.672;9.376;2022-11-04T15:12:18;97647.91;;;15.62;60.82
13312;BME280;34033;48.672;9.376;2022-11-04T15:15:38;97659.53;;;15.48;62.26
13312;BME280;34033;48.672;9.376;2022-11-04T15:18:08;97667.19;;;15.31;65.34
13312;BME280;34033;48.672;9.376;2022-11-04T15:20:39;97669.31;;;15.27;65.41